Time;durP1;ratioP1;P1;durP2;ratioP2;P2;SDS_P1;SDS_P2;PMS_P1;PMS_P2;Temp;Humidity;BMP_temperature;BMP_pressure;BME280_temperature;BME280_humidity;BME280_pressure;Samples;Min_cycle;Max_cycle;Signal;HPM_P1;HPM_P2
2023/08/02 00:01:59;;;;;;;;;;;;;;;15.56;87.47;100040.06;5040863;28;1200;-75
2023/08/02 00:04:24;;;;;;;;;;;;;;;15.55;87.23;100027.19;5061023;28;1955;-75
2023/08/02 00:06:49;;;;;;;;;;;;;;;15.55;87.58;100021.94;5050124;28;1257;-76
2023/08/02 00:09:14;;;;;;;;;;;;;;;15.54;87.48;100009.84;5058411;28;1016;-75
2023/08/02 00:11:39;;;;;;;;;;;;;;;15.53;87.58;100008.22;5066170;28;1164;-75
2023/08/02 00:14:05;;;;;;;;;;;;;;;15.52;88.24;100006.59;5057745;28;1113;-76
2023/08/02 00:16:30;;;;;;;;;;;;;;;15.50;87.53;100009.41;5060759;28;1662;-76
2023/08/02 00:18:55;;;;;;;;;;;;;;;15.48;88.31;100005.31;5061846;28;1721;-75
2023/08/02 00:21:20;;;;;;;;;;;;;;;15.46;88.13;100002.09;5065404;28;1334;-75
2023/08/02 00:23:47;;;;;;;;;;;;;;;15.45;88.43;100024.00;5062399;28;1910;-76
2023/08/02 00:26:12;;;;;;;;;;;;;;;15.44;88.67;100024.97;5062977;28;1365;-75
2023/08/02 00:28:37;;;;;;;;;;;;;;;15.45;88.85;100016.97;5056131;28;1683;-75
2023/08/02 00:31:02;;;;;;;;;;;;;;;15.44;88.73;100009.31;5059960;28;1352;-75
2023/08/02 00:33:28;;;;;;;;;;;;;;;15.44;89.23;100019.75;5052423;28;1180;-75
2023/08/02 00:35:54;;;;;;;;;;;;;;;15.42;89.40;100025.13;5056160;28;1514;-75
2023/08/02 00:38:21;;;;;;;;;;;;;;;15.40;89.42;100020.09;5057440;28;1004;-76
2023/08/02 00:40:46;;;;;;;;;;;;;;;15.38;89.79;100006.41;5063874;28;1355;-76
2023/08/02 00:43:11;;;;;;;;;;;;;;;15.34;90.13;100005.13;5065768;28;1897;-76
2023/08/02 00:45:36;;;;;;;;;;;;;;;15.33;89.73;99998.28;5060782;28;1089;-75
2023/08/02 00:48:02;;;;;;;;;;;;;;;15.29;89.53;99991.78;5057743;28;1252;-76
2023/08/02 00:50:29;;;;;;;;;;;;;;;15.27;90.08;99993.75;5064529;28;1474;-76
2023/08/02 00:52:54;;;;;;;;;;;;;;;15.24;89.85;99983.66;5062654;28;1217;-75
2023/08/02 00:55:20;;;;;;;;;;;;;;;15.23;89.61;99981.22;5056743;28;1185;-75
2023/08/02 00:57:45;;;;;;;;;;;;;;;15.20;90.39;99987.63;5062384;28;1097;-76
2023/08/02 01:00:10;;;;;;;;;;;;;;;15.17;89.92;99980.13;5062338;28;1114;-75
2023/08/02 01:02:36;;;;;;;;;;;;;;;15.16;90.68;99981.13;5054529;28;1194;-75
2023/08/02 01:05:02;;;;;;;;;;;;;;;15.13;91.08;99978.84;5048472;28;1906;-75
2023/08/02 01:07:30;;;;;;;;;;;;;;;15.11;90.98;99984.25;5057384;28;1261;-75
2023/08/02 01:10:01;;;;;;;;;;;;;;;15.12;91.40;99979.81;5064905;28;1006;-75
2023/08/02 01:12:27;;;;;;;;;;;;;;;15.11;90.49;99970.38;5057586;28;1080;-75
2023/08/02 01:14:54;;;;;;;;;;;;;;;15.10;91.32;99987.03;5067223;28;1326;-74
2023/08/02 01:17:20;;;;;;;;;;;;;;;15.09;91.11;99986.22;5054233;28;1342;-75
2023/08/02 01:19:47;;;;;;;;;;;;;;;15.07;90.94;99989.97;5058965;28;1228;-76
2023/08/02 01:22:12;;;;;;;;;;;;;;;15.06;91.60;99996.19;5063220;28;1345;-76
2023/08/02 01:24:37;;;;;;;;;;;;;;;15.02;91.74;100000.13;5060891;28;1914;-75
2023/08/02 01:27:07;;;;;;;;;;;;;;;14.99;91.53;100000.50;5053587;28;1697;-76
2023/08/02 01:29:34;;;;;;;;;;;;;;;14.95;91.95;99983.56;5045480;28;1492;-76
2023/08/02 01:32:00;;;;;;;;;;;;;;;14.95;92.35;99978.31;5058862;28;1353;-75
2023/08/02 01:34:25;;;;;;;;;;;;;;;14.95;92.46;99970.50;5058015;28;1424;-75
2023/08/02 01:36:51;;;;;;;;;;;;;;;14.95;92.47;99975.72;5039867;28;2391;-75
2023/08/02 01:39:16;;;;;;;;;;;;;;;14.95;92.11;99978.31;5059296;28;1152;-76
2023/08/02 01:41:42;;;;;;;;;;;;;;;14.96;92.60;99974.72;5059795;28;1328;-75
2023/08/02 01:44:07;;;;;;;;;;;;;;;14.94;92.71;99971.47;5055853;28;1980;-75
2023/08/02 01:46:32;;;;;;;;;;;;;;;14.94;92.10;99971.47;5058606;28;1620;-76
2023/08/02 01:48:57;;;;;;;;;;;;;;;14.93;92.65;99969.88;5060631;28;1215;-75
2023/08/02 01:51:23;;;;;;;;;;;;;;;14.94;92.57;99961.03;5058925;28;1411;-75
2023/08/02 01:53:49;;;;;;;;;;;;;;;14.88;92.27;99958.13;5060718;28;1337;-76
2023/08/02 01:56:14;;;;;;;;;;;;;;;14.84;92.55;99956.84;5035921;28;1563;-76
2023/08/02 01:58:39;;;;;;;;;;;;;;;14.83;92.64;99955.22;5061206;28;1592;-75
2023/08/02 02:01:04;;;;;;;;;;;;;;;14.83;93.07;99950.00;5055557;28;1317;-75
2023/08/02 02:03:30;;;;;;;;;;;;;;;14.84;92.86;99940.38;5056086;28;1981;-76
2023/08/02 02:05:55;;;;;;;;;;;;;;;14.84;93.42;99935.97;5057288;28;1373;-75
2023/08/02 02:08:20;;;;;;;;;;;;;;;14.86;93.32;99920.16;5062183;28;1401;-75
2023/08/02 02:11:04;;;;;;;;;;;;;;;14.85;92.80;99915.88;5061321;28;1410;-76
2023/08/02 02:13:30;;;;;;;;;;;;;;;14.83;93.36;99913.47;5059722;28;1425;-75
2023/08/02 02:15:55;;;;;;;;;;;;;;;14.83;93.75;99908.25;5056929;28;1338;-76
2023/08/02 02:18:20;;;;;;;;;;;;;;;14.82;93.59;99906.63;5053394;28;1444;-76
2023/08/02 02:20:45;;;;;;;;;;;;;;;14.81;93.51;99886.72;5057084;28;1321;-75
2023/08/02 02:23:11;;;;;;;;;;;;;;;14.82;93.61;99880.50;5056337;28;1898;-74
2023/08/02 02:25:36;;;;;;;;;;;;;;;14.82;93.64;99874.50;5058548;28;1133;-74
2023/08/02 02:28:01;;;;;;;;;;;;;;;14.82;93.42;99871.88;5060503;28;1149;-75
2023/08/02 02:30:26;;;;;;;;;;;;;;;14.78;93.86;99868.78;5057087;28;1053;-74
2023/08/02 02:32:52;;;;;;;;;;;;;;;14.79;93.90;99859.97;5061905;28;1156;-74
2023/08/02 02:35:17;;;;;;;;;;;;;;;14.81;94.05;99855.41;5061095;28;1226;-75
2023/08/02 02:37:43;;;;;;;;;;;;;;;14.81;94.43;99842.34;5061486;28;1172;-74
2023/08/02 02:40:08;;;;;;;;;;;;;;;14.81;94.19;99839.75;5050711;28;2087;-74
2023/08/02 02:42:34;;;;;;;;;;;;;;;14.82;94.20;99843.16;5064778;28;1314;-74
2023/08/02 02:44:59;;;;;;;;;;;;;;;14.82;94.61;99843.97;5058958;28;1890;-75
2023/08/02 02:47:24;;;;;;;;;;;;;;;14.80;94.33;99840.75;5058433;28;1211;-74
2023/08/02 02:49:49;;;;;;;;;;;;;;;14.80;94.80;99845.97;5064152;28;978;-75
2023/08/02 02:52:15;;;;;;;;;;;;;;;14.82;94.87;99833.53;5054752;28;1059;-75
2023/08/02 02:54:40;;;;;;;;;;;;;;;14.81;94.96;99841.53;5058595;28;1142;-74
2023/08/02 02:57:05;;;;;;;;;;;;;;;14.80;95.17;99838.13;5055764;28;1390;-74
2023/08/02 02:59:32;;;;;;;;;;;;;;;14.79;94.91;99833.88;5056799;28;1403;-75
2023/08/02 03:01:57;;;;;;;;;;;;;;;14.78;95.05;99827.03;5061588;28;1284;-74
2023/08/02 03:04:22;;;;;;;;;;;;;;;14.77;94.48;99814.97;5063769;28;1972;-74
2023/08/02 03:06:47;;;;;;;;;;;;;;;14.76;95.14;99802.09;5037808;28;1138;-74
2023/08/02 03:09:13;;;;;;;;;;;;;;;14.75;95.10;99790.84;5056602;28;1438;-75
2023/08/02 03:11:38;;;;;;;;;;;;;;;14.75;95.31;99790.84;5053719;28;1280;-74
2023/08/02 03:14:04;;;;;;;;;;;;;;;14.74;95.48;99778.00;5059365;28;1416;-74
2023/08/02 03:16:30;;;;;;;;;;;;;;;14.73;95.75;99776.34;5052787;28;1474;-77
2023/08/02 03:18:55;;;;;;;;;;;;;;;14.71;96.31;99766.09;5052621;28;1339;-75
2023/08/02 03:21:20;;;;;;;;;;;;;;;14.71;95.53;99760.88;5062685;28;1096;-74
2023/08/02 03:23:45;;;;;;;;;;;;;;;14.69;95.68;99749.81;5056738;28;1917;-74
2023/08/02 03:26:10;;;;;;;;;;;;;;;14.68;96.00;99744.75;5056028;28;1304;-75
2023/08/02 03:28:36;;;;;;;;;;;;;;;14.67;96.31;99756.97;5056773;28;1393;-74
2023/08/02 03:31:01;;;;;;;;;;;;;;;14.67;96.21;99746.53;5058034;28;1152;-74
2023/08/02 03:33:26;;;;;;;;;;;;;;;14.69;96.21;99744.59;5063281;28;1098;-75
2023/08/02 03:35:51;;;;;;;;;;;;;;;14.70;95.97;99738.38;5057903;28;1359;-75
2023/08/02 03:38:16;;;;;;;;;;;;;;;14.71;96.20;99742.59;5062470;28;1192;-74
2023/08/02 03:40:43;;;;;;;;;;;;;;;14.73;96.53;99740.59;5053297;28;1293;-74
2023/08/02 03:43:08;;;;;;;;;;;;;;;14.76;97.04;99749.91;5050930;28;1879;-75
2023/08/02 03:45:33;;;;;;;;;;;;;;;14.75;96.64;99733.44;5062284;28;1642;-75
2023/08/02 03:47:59;;;;;;;;;;;;;;;14.76;96.92;99723.78;5060325;28;1562;-74
2023/08/02 03:50:24;;;;;;;;;;;;;;;14.76;97.14;99719.38;5055737;28;1140;-74
2023/08/02 03:52:49;;;;;;;;;;;;;;;14.78;97.50;99725.22;5055858;28;1463;-74
2023/08/02 03:55:14;;;;;;;;;;;;;;;14.79;96.83;99723.41;5052676;28;1333;-74
2023/08/02 03:57:39;;;;;;;;;;;;;;;14.78;97.49;99725.22;5055253;28;1367;-74
2023/08/02 04:00:05;;;;;;;;;;;;;;;14.79;97.12;99724.22;5055038;28;1374;-74
2023/08/02 04:02:30;;;;;;;;;;;;;;;14.78;97.93;99704.34;5055215;28;1300;-74
2023/08/02 04:04:55;;;;;;;;;;;;;;;14.78;97.71;99696.50;5059282;28;1898;-75
2023/08/02 04:07:21;;;;;;;;;;;;;;;14.80;97.58;99694.56;5061004;28;1454;-75
2023/08/02 04:09:46;;;;;;;;;;;;;;;14.82;97.73;99692.56;5040948;28;2354;-78
2023/08/02 04:12:11;;;;;;;;;;;;;;;14.82;97.68;99682.13;5029669;28;1356;-75
2023/08/02 04:14:36;;;;;;;;;;;;;;;14.83;97.83;99678.50;5057037;28;1032;-75
2023/08/02 04:17:02;;;;;;;;;;;;;;;14.84;97.76;99680.13;5055675;28;1401;-75
2023/08/02 04:19:27;;;;;;;;;;;;;;;14.84;97.90;99669.69;5059766;28;1119;-73
2023/08/02 04:21:52;;;;;;;;;;;;;;;14.85;98.02;99662.66;5056374;28;1403;-75
2023/08/02 04:24:17;;;;;;;;;;;;;;;14.86;98.14;99665.13;5056258;28;1906;-74
2023/08/02 04:26:43;;;;;;;;;;;;;;;14.86;98.04;99652.06;5053278;28;1445;-74
2023/08/02 04:29:08;;;;;;;;;;;;;;;14.87;98.46;99647.66;5057029;28;1397;-75
2023/08/02 04:31:33;;;;;;;;;;;;;;;14.85;98.07;99634.78;5060885;28;1239;-74
2023/08/02 04:33:58;;;;;;;;;;;;;;;14.86;98.29;99625.97;5055864;28;1085;-75
2023/08/02 04:36:24;;;;;;;;;;;;;;;14.87;98.45;99627.56;5060284;28;1113;-74
2023/08/02 04:38:51;;;;;;;;;;;;;;;14.87;98.66;99617.13;5057077;28;1169;-75
2023/08/02 04:41:16;;;;;;;;;;;;;;;14.88;99.73;99607.50;5045394;28;1336;-75
2023/08/02 04:43:41;;;;;;;;;;;;;;;14.87;98.97;99605.88;5045666;28;1926;-75
2023/08/02 04:46:07;;;;;;;;;;;;;;;14.86;99.75;99589.41;5056241;28;1313;-75
2023/08/02 04:48:32;;;;;;;;;;;;;;;14.87;99.47;99580.59;5056909;28;1159;-74
2023/08/02 04:50:57;;;;;;;;;;;;;;;14.88;99.14;99570.94;5054602;28;1458;-75
2023/08/02 04:53:22;;;;;;;;;;;;;;;14.87;99.50;99564.91;5057762;28;1078;-75
2023/08/02 04:55:47;;;;;;;;;;;;;;;14.88;99.63;99561.31;5047634;28;1058;-76
2023/08/02 04:58:13;;;;;;;;;;;;;;;14.90;99.86;99552.47;5060713;28;1493;-75
2023/08/02 05:00:38;;;;;;;;;;;;;;;14.90;99.86;99557.69;5054052;28;1131;-74
2023/08/02 05:03:03;;;;;;;;;;;;;;;14.90;99.74;99555.09;5055625;28;1963;-74
2023/08/02 05:05:29;;;;;;;;;;;;;;;14.91;100.00;99551.47;5052841;28;1442;-76
2023/08/02 05:07:54;;;;;;;;;;;;;;;14.90;100.00;99542.84;5061145;28;1625;-74
2023/08/02 05:10:19;;;;;;;;;;;;;;;14.92;100.00;99537.47;5049828;28;1598;-74
2023/08/02 05:12:44;;;;;;;;;;;;;;;14.92;100.00;99529.63;5056618;28;1306;-75
2023/08/02 05:15:09;;;;;;;;;;;;;;;14.92;100.00;99529.63;5057480;28;1260;-75
2023/08/02 05:17:35;;;;;;;;;;;;;;;14.92;100.00;99524.41;5060910;28;1276;-76
2023/08/02 05:20:00;;;;;;;;;;;;;;;14.94;100.00;99527.63;5066354;28;1380;-74
2023/08/02 05:22:25;;;;;;;;;;;;;;;14.97;100.00;99522.06;5059499;28;1655;-76
2023/08/02 05:24:51;;;;;;;;;;;;;;;14.98;100.00;99508.81;5064695;28;1914;-75
2023/08/02 05:27:16;;;;;;;;;;;;;;;14.97;100.00;99503.78;5059305;28;1331;-75
2023/08/02 05:29:41;;;;;;;;;;;;;;;14.98;100.00;99494.94;5063411;28;1738;-75
2023/08/02 05:32:07;;;;;;;;;;;;;;;14.98;100.00;99502.78;5067733;28;1254;-75
2023/08/02 05:34:32;;;;;;;;;;;;;;;14.99;100.00;99494.75;5056481;28;1649;-75
2023/08/02 05:36:57;;;;;;;;;;;;;;;14.99;100.00;99488.72;5063767;28;1160;-75
2023/08/02 05:39:22;;;;;;;;;;;;;;;15.00;100.00;99477.28;5066180;28;1704;-76
2023/08/02 05:41:48;;;;;;;;;;;;;;;15.00;100.00;99464.22;5065282;28;1216;-74
2023/08/02 05:44:13;;;;;;;;;;;;;;;14.99;100.00;99462.59;5049842;28;1983;-75
2023/08/02 05:46:38;;;;;;;;;;;;;;;15.00;100.00;99456.38;5054740;28;1369;-75
2023/08/02 05:49:03;;;;;;;;;;;;;;;14.98;100.00;99451.34;5061540;28;1369;-74
2023/08/02 05:51:28;;;;;;;;;;;;;;;15.00;100.00;99459.00;5058659;28;1313;-75
2023/08/02 05:53:54;;;;;;;;;;;;;;;14.97;100.00;99454.97;5060126;28;1425;-75
2023/08/02 05:56:19;;;;;;;;;;;;;;;14.96;100.00;99440.28;5036173;28;1542;-77
2023/08/02 05:58:44;;;;;;;;;;;;;;;14.95;100.00;99437.84;5063390;28;1485;-74
2023/08/02 06:01:09;;;;;;;;;;;;;;;14.93;100.00;99437.25;5061653;28;1257;-75
2023/08/02 06:03:35;;;;;;;;;;;;;;;14.91;100.00;99434.00;5056148;28;1902;-75
2023/08/02 06:06:00;;;;;;;;;;;;;;;14.90;100.00;99429.78;5060274;28;1291;-75
2023/08/02 06:08:25;;;;;;;;;;;;;;;14.87;100.00;99408.28;5062103;28;1499;-76
2023/08/02 06:10:50;;;;;;;;;;;;;;;14.86;100.00;99406.69;5059348;28;1288;-75
2023/08/02 06:13:15;;;;;;;;;;;;;;;14.86;100.00;99396.22;5057058;28;1193;-76
2023/08/02 06:15:41;;;;;;;;;;;;;;;14.85;100.00;99381.56;5057606;28;1384;-75
2023/08/02 06:18:06;;;;;;;;;;;;;;;14.85;100.00;99373.75;5062247;28;1343;-75
2023/08/02 06:20:31;;;;;;;;;;;;;;;14.86;100.00;99370.13;5067239;28;1195;-76
2023/08/02 06:22:56;;;;;;;;;;;;;;;14.86;100.00;99364.91;5044380;28;1429;-75
2023/08/02 06:25:22;;;;;;;;;;;;;;;14.84;100.00;99355.63;5057576;28;1964;-76
2023/08/02 06:27:47;;;;;;;;;;;;;;;14.85;100.00;99358.06;5063285;28;1144;-76
2023/08/02 06:30:13;;;;;;;;;;;;;;;14.85;100.00;99357.25;5064798;28;1374;-75
2023/08/02 06:32:38;;;;;;;;;;;;;;;14.84;100.00;99348.59;5060887;28;1080;-75
2023/08/02 06:35:04;;;;;;;;;;;;;;;14.84;100.00;99335.56;5057921;28;1085;-76
2023/08/02 06:37:29;;;;;;;;;;;;;;;14.82;100.00;99332.34;5055113;28;1105;-77
2023/08/02 06:39:54;;;;;;;;;;;;;;;14.82;100.00;99321.91;5061096;28;1074;-75
2023/08/02 06:42:19;;;;;;;;;;;;;;;14.82;100.00;99323.69;5058643;28;1112;-76
2023/08/02 06:44:44;;;;;;;;;;;;;;;14.83;100.00;99322.69;5058638;28;1893;-76
2023/08/02 06:47:10;;;;;;;;;;;;;;;14.82;100.00;99316.69;5053737;28;1022;-75
2023/08/02 06:49:35;;;;;;;;;;;;;;;14.83;100.00;99307.84;5053705;28;1315;-76
2023/08/02 06:52:00;;;;;;;;;;;;;;;14.82;100.00;99301.00;5058663;28;1081;-76
2023/08/02 06:54:25;;;;;;;;;;;;;;;14.82;100.00;99306.22;5055776;28;1093;-77
2023/08/02 06:56:51;;;;;;;;;;;;;;;14.83;100.00;99291.38;5059434;28;1135;-76
2023/08/02 06:59:16;;;;;;;;;;;;;;;14.84;100.00;99288.56;5059208;28;1155;-77
2023/08/02 07:01:41;;;;;;;;;;;;;;;14.85;100.00;99264.09;5058725;28;1061;-76
2023/08/02 07:04:06;;;;;;;;;;;;;;;14.87;100.00;99262.09;5054316;28;1894;-77
2023/08/02 07:06:31;;;;;;;;;;;;;;;14.85;100.00;99243.22;5053199;28;1198;-78
2023/08/02 07:08:57;;;;;;;;;;;;;;;14.86;100.00;99234.38;5059950;28;1113;-77
2023/08/02 07:11:22;;;;;;;;;;;;;;;14.87;100.00;99228.16;5058456;28;1219;-77
2023/08/02 07:13:48;;;;;;;;;;;;;;;14.86;100.00;99218.72;5055682;28;1340;-78
2023/08/02 07:16:13;;;;;;;;;;;;;;;14.85;100.00;99206.69;5053811;28;1398;-77
2023/08/02 07:18:38;;;;;;;;;;;;;;;14.87;100.00;99199.44;5058191;28;1391;-77
2023/08/02 07:21:07;;;;;;;;;;;;;;;14.89;100.00;99191.41;5056431;28;1011;-75
2023/08/02 07:23:32;;;;;;;;;;;;;;;14.91;100.00;99188.59;5057927;28;1893;-76
2023/08/02 07:25:58;;;;;;;;;;;;;;;14.94;100.00;99183.03;5061216;28;1380;-75
2023/08/02 07:28:23;;;;;;;;;;;;;;;14.94;100.00;99173.38;5054162;28;1976;-75
2023/08/02 07:30:48;;;;;;;;;;;;;;;14.93;100.00;99170.97;5057269;28;1488;-76
2023/08/02 07:33:13;;;;;;;;;;;;;;;14.98;100.00;99173.81;5056086;28;1366;-77
2023/08/02 07:35:38;;;;;;;;;;;;;;;14.99;100.00;99170.19;5056807;28;1396;-75
2023/08/02 07:38:04;;;;;;;;;;;;;;;15.00;100.00;99169.19;5058806;28;1375;-76
2023/08/02 07:40:29;;;;;;;;;;;;;;;15.02;100.00;99164.56;5055783;28;1093;-75
2023/08/02 07:42:54;;;;;;;;;;;;;;;15.03;100.00;99161.78;5057881;28;1009;-76
2023/08/02 07:45:19;;;;;;;;;;;;;;;15.03;100.00;99155.75;5059476;28;1957;-76
2023/08/02 07:47:44;;;;;;;;;;;;;;;15.03;100.00;99155.75;5058881;28;1133;-76
2023/08/02 07:50:10;;;;;;;;;;;;;;;15.05;100.00;99153.75;5056640;28;1384;-75
2023/08/02 07:52:36;;;;;;;;;;;;;;;15.08;100.00;99142.91;5053019;28;1286;-75
2023/08/02 07:55:01;;;;;;;;;;;;;;;15.10;100.00;99130.47;5058825;28;1259;-76
2023/08/02 07:57:29;;;;;;;;;;;;;;;15.11;100.00;99127.66;5050553;28;1498;-75
2023/08/02 07:59:56;;;;;;;;;;;;;;;15.12;100.00;99126.66;5058508;28;1101;-75
2023/08/02 08:02:21;;;;;;;;;;;;;;;15.15;100.00;99117.63;5052568;28;1315;-75
2023/08/02 08:04:46;;;;;;;;;;;;;;;15.17;100.00;99105.19;5055384;28;1910;-76
2023/08/02 08:07:12;;;;;;;;;;;;;;;15.18;100.00;99101.56;5054040;28;1236;-77
2023/08/02 08:09:37;;;;;;;;;;;;;;;15.21;100.00;99095.94;5051359;28;1490;-76
2023/08/02 08:12:03;;;;;;;;;;;;;;;15.24;100.00;99092.94;5061145;28;1091;-76
2023/08/02 08:14:29;;;;;;;;;;;;;;;15.27;100.00;99083.91;5056433;28;1248;-76
2023/08/02 08:16:56;;;;;;;;;;;;;;;15.30;100.00;99078.28;5055391;28;1252;-77
2023/08/02 08:19:21;;;;;;;;;;;;;;;15.34;100.00;99082.91;5054443;28;941;-76
2023/08/02 08:21:47;;;;;;;;;;;;;;;15.37;100.00;99084.34;5057143;28;1248;-77
2023/08/02 08:24:12;;;;;;;;;;;;;;;15.38;100.00;99071.06;5054012;28;1966;-76
2023/08/02 08:26:37;;;;;;;;;;;;;;;15.40;100.00;99079.50;5059551;28;1098;-76
2023/08/02 08:29:02;;;;;;;;;;;;;;;15.43;100.00;99080.13;5066660;28;1458;-77
2023/08/02 08:31:28;;;;;;;;;;;;;;;15.44;100.00;99081.72;5055869;28;1061;-76
2023/08/02 08:33:54;;;;;;;;;;;;;;;15.45;100.00;99086.75;5061526;28;1020;-76
2023/08/02 08:36:20;;;;;;;;;;;;;;;15.49;100.00;99074.09;5058517;28;1074;-76
2023/08/02 08:38:45;;;;;;;;;;;;;;;15.50;100.00;99067.88;5055237;28;1079;-77
2023/08/02 08:41:13;;;;;;;;;;;;;;;15.53;100.00;99067.44;5064158;28;1023;-77
2023/08/02 08:43:38;;;;;;;;;;;;;;;15.54;100.00;99071.66;5061612;28;1959;-75
2023/08/02 08:46:03;;;;;;;;;;;;;;;15.57;100.00;99068.66;5054933;28;1172;-75
2023/08/02 08:48:30;;;;;;;;;;;;;;;15.59;100.00;99066.66;5060164;28;1056;-75
2023/08/02 08:50:59;;;;;;;;;;;;;;;15.61;100.00;99075.13;5056633;28;1190;-75
2023/08/02 08:53:31;;;;;;;;;;;;;;;15.63;100.00;99062.66;5056002;28;1059;-75
2023/08/02 08:55:58;;;;;;;;;;;;;;;15.67;100.00;99058.66;5056621;28;1157;-75
2023/08/02 08:58:24;;;;;;;;;;;;;;;15.70;100.00;99053.00;5054857;28;1140;-76
2023/08/02 09:00:49;;;;;;;;;;;;;;;15.73;100.00;99051.81;5060365;28;1089;-76
2023/08/02 09:03:15;;;;;;;;;;;;;;;15.76;100.00;99048.78;5062856;28;1901;-75
2023/08/02 09:05:41;;;;;;;;;;;;;;;15.79;100.00;99054.44;5061828;28;1420;-77
2023/08/02 09:08:06;;;;;;;;;;;;;;;15.87;100.00;99053.41;5056702;28;1216;-75
2023/08/02 09:10:32;;;;;;;;;;;;;;;15.93;100.00;99042.13;5045953;28;1251;-76
2023/08/02 09:12:57;;;;;;;;;;;;;;;16.00;100.00;99047.34;5058842;28;1325;-76
2023/08/02 09:15:22;;;;;;;;;;;;;;;16.10;100.00;99039.91;5044109;28;1335;-76
2023/08/02 09:17:54;;;;;;;;;;;;;;;16.21;100.00;99039.28;5041554;28;1376;-76
2023/08/02 09:20:21;;;;;;;;;;;;;;;16.30;100.00;99032.81;5061414;28;1384;-75
2023/08/02 09:22:46;;;;;;;;;;;;;;;16.36;100.00;99041.66;5043349;28;1196;-75
2023/08/02 09:25:21;;;;;;;;;;;;;;;16.40;100.00;99027.97;5055536;28;1972;-75
2023/08/02 09:27:46;;;;;;;;;;;;;;;16.46;100.00;99024.50;5061856;28;1376;-76
2023/08/02 09:30:21;;;;;;;;;;;;;;;16.53;100.00;99029.72;5057255;28;1136;-76
2023/08/02 09:32:57;;;;;;;;;;;;;;;16.61;100.00;99023.44;5060467;28;1399;-76
2023/08/02 09:35:22;;;;;;;;;;;;;;;16.68;100.00;99018.97;5060663;28;1216;-75
2023/08/02 09:37:47;;;;;;;;;;;;;;;16.77;100.00;99004.66;5059353;28;1022;-76
2023/08/02 09:40:12;;;;;;;;;;;;;;;16.89;100.00;99005.59;5057282;28;1275;-76
2023/08/02 09:42:38;;;;;;;;;;;;;;;17.02;100.00;99002.09;5057161;28;1279;-75
2023/08/02 09:45:03;;;;;;;;;;;;;;;17.10;100.00;98995.81;5055226;28;1963;-76
2023/08/02 09:47:29;;;;;;;;;;;;;;;17.20;100.00;98990.88;5057103;28;1323;-75
2023/08/02 09:50:21;;;;;;;;;;;;;;;17.26;100.00;98990.03;5053025;28;1200;-76
2023/08/02 09:52:46;;;;;;;;;;;;;;;17.36;100.00;98979.09;5052453;28;1390;-75
2023/08/02 09:55:12;;;;;;;;;;;;;;;17.44;100.00;98982.25;5052358;28;1272;-76
2023/08/02 09:57:39;;;;;;;;;;;;;;;17.56;100.00;98984.16;5056744;28;1675;-76
2023/08/02 10:00:06;;;;;;;;;;;;;;;17.61;100.00;98981.72;5057185;28;1065;-76
2023/08/02 10:02:33;;;;;;;;;;;;;;;17.65;100.00;98977.63;5061054;28;1324;-76
2023/08/02 10:04:59;;;;;;;;;;;;;;;17.69;100.00;98978.78;5060445;28;1893;-76
2023/08/02 10:07:32;;;;;;;;;;;;;;;17.72;100.00;98989.69;5055775;28;1183;-75
2023/08/02 10:10:00;;;;;;;;;;;;;;;17.76;100.00;98990.03;5051113;28;1690;-78
2023/08/02 10:12:27;;;;;;;;;;;;;;;17.83;100.00;98975.03;5055707;28;1581;-77
2023/08/02 10:14:55;;;;;;;;;;;;;;;17.89;100.00;98979.44;5057542;28;1344;-78
2023/08/02 10:17:21;;;;;;;;;;;;;;;17.97;100.00;98971.28;5058737;28;1102;-78
2023/08/02 10:19:47;;;;;;;;;;;;;;;18.04;100.00;98964.13;5059005;28;1301;-78
2023/08/02 10:22:12;;;;;;;;;;;;;;;18.15;100.00;98956.56;5045415;28;1199;-78
2023/08/02 10:24:39;;;;;;;;;;;;;;;18.28;100.00;98956.38;5059032;28;1898;-77
2023/08/02 10:27:06;;;;;;;;;;;;;;;18.45;100.00;98946.06;5057734;28;1243;-78
2023/08/02 10:29:32;;;;;;;;;;;;;;;18.65;100.00;98941.38;5058086;28;1170;-77
2023/08/02 10:31:57;;;;;;;;;;;;;;;18.79;100.00;98942.81;5060536;28;1440;-77
2023/08/02 10:34:34;;;;;;;;;;;;;;;18.90;100.00;98954.38;5058359;28;1282;-77
2023/08/02 10:37:00;;;;;;;;;;;;;;;19.01;100.00;98940.47;5057249;28;1087;-77
2023/08/02 10:39:44;;;;;;;;;;;;;;;19.10;100.00;98923.34;5054440;28;1082;-78
2023/08/02 10:42:09;;;;;;;;;;;;;;;19.14;100.00;98928.13;5057599;28;1006;-77
2023/08/02 10:44:34;;;;;;;;;;;;;;;19.19;100.00;98915.13;5055728;28;1961;-78
2023/08/02 10:47:18;;;;;;;;;;;;;;;19.25;100.00;98909.75;5056030;28;1105;-78
2023/08/02 10:49:43;;;;;;;;;;;;;;;19.37;100.00;98897.41;5051016;28;1051;-79
2023/08/02 10:52:22;;;;;;;;;;;;;;;19.45;100.00;98898.91;5057694;28;1011;-77
2023/08/02 10:55:06;;;;;;;;;;;;;;;19.51;100.00;98919.00;5057524;28;891;-78
2023/08/02 10:57:31;;;;;;;;;;;;;;;19.53;100.00;98922.19;5058663;28;1148;-78
2023/08/02 10:59:56;;;;;;;;;;;;;;;19.55;100.00;98909.63;5056313;28;1124;-77
2023/08/02 11:02:25;;;;;;;;;;;;;;;19.51;100.00;98903.22;5058410;28;990;-77
2023/08/02 11:04:50;;;;;;;;;;;;;;;19.47;100.00;98915.22;5059360;28;1901;-78
2023/08/02 11:07:18;;;;;;;;;;;;;;;19.40;100.00;98906.66;5056326;28;1308;-78
2023/08/02 11:09:43;;;;;;;;;;;;;;;19.33;100.00;98892.84;5061400;28;1014;-78
2023/08/02 11:12:13;;;;;;;;;;;;;;;19.27;100.00;98891.13;5056653;28;1070;-79
2023/08/02 11:14:38;;;;;;;;;;;;;;;19.21;100.00;98897.28;5059477;28;1167;-77
2023/08/02 11:17:04;;;;;;;;;;;;;;;19.17;100.00;98901.41;5058454;28;1251;-77
2023/08/02 11:19:29;;;;;;;;;;;;;;;19.13;100.00;98895.00;5061397;28;1217;-77
2023/08/02 11:21:55;;;;;;;;;;;;;;;19.06;100.00;98895.91;5044265;28;1328;-77
2023/08/02 11:24:21;;;;;;;;;;;;;;;19.00;100.00;98875.81;5061535;28;1979;-76
2023/08/02 11:26:59;;;;;;;;;;;;;;;19.00;100.00;98856.63;5059360;28;1097;-77
2023/08/02 11:29:25;;;;;;;;;;;;;;;18.93;100.00;98848.06;5053616;28;1165;-78
2023/08/02 11:31:50;;;;;;;;;;;;;;;18.88;100.00;98856.59;5056690;28;1501;-78
2023/08/02 11:34:19;;;;;;;;;;;;;;;18.85;100.00;98862.31;5059688;28;1131;-79
2023/08/02 11:36:48;;;;;;;;;;;;;;;18.82;100.00;98862.78;5058236;28;1474;-79
2023/08/02 11:39:14;;;;;;;;;;;;;;;18.79;100.00;98863.22;5054854;28;1085;-79
2023/08/02 11:41:40;;;;;;;;;;;;;;;18.79;100.00;98868.47;5059544;28;1254;-79
2023/08/02 11:44:13;;;;;;;;;;;;;;;18.84;100.00;98865.97;5058787;28;1906;-78
2023/08/02 11:46:38;;;;;;;;;;;;;;;18.89;100.00;98860.84;5052884;28;1415;-78
2023/08/02 11:49:05;;;;;;;;;;;;;;;18.93;100.00;98854.09;5058442;28;1348;-78
2023/08/02 11:51:30;;;;;;;;;;;;;;;18.95;100.00;98859.91;5054490;28;1470;-82
2023/08/02 11:53:57;;;;;;;;;;;;;;;19.06;100.00;98858.34;5051388;28;1312;-78
2023/08/02 11:56:25;;;;;;;;;;;;;;;19.14;100.00;98865.06;5057236;28;1418;-78
2023/08/02 11:58:51;;;;;;;;;;;;;;;19.16;100.00;98876.16;5055778;28;1568;-78
2023/08/02 12:01:17;;;;;;;;;;;;;;;19.22;100.00;98862.09;5054413;28;1683;-77
2023/08/02 12:03:55;;;;;;;;;;;;;;;19.37;100.00;98851.91;5055232;28;1918;-78
2023/08/02 12:06:20;;;;;;;;;;;;;;;19.50;100.00;98859.56;5056102;28;1378;-79
2023/08/02 12:08:56;;;;;;;;;;;;;;;19.55;100.00;98846.50;5059611;28;1295;-78
2023/08/02 12:11:22;;;;;;;;;;;;;;;19.66;100.00;98846.75;5055421;28;1392;-78
2023/08/02 12:13:47;;;;;;;;;;;;;;;19.79;100.00;98843.88;5054742;28;1714;-77
2023/08/02 12:16:13;;;;;;;;;;;;;;;19.93;100.00;98853.06;5054871;28;1219;-78
2023/08/02 12:18:51;;;;;;;;;;;;;;;20.09;100.00;98826.03;5051992;28;1645;-79
2023/08/02 12:21:16;;;;;;;;;;;;;;;20.25;100.00;98829.72;5057881;28;1344;-79
2023/08/02 12:23:41;;;;;;;;;;;;;;;20.39;100.00;98827.59;5056802;28;1968;-79
2023/08/02 12:26:07;;;;;;;;;;;;;;;20.51;100.00;98827.53;5053418;28;995;-78
2023/08/02 12:28:42;;;;;;;;;;;;;;;20.63;100.00;98823.78;5056500;28;1174;-78
2023/08/02 12:31:08;;;;;;;;;;;;;;;20.77;100.00;98820.84;5058191;28;994;-77
2023/08/02 12:33:33;;;;;;;;;;;;;;;20.84;100.00;98817.00;5057983;28;1120;-78
2023/08/02 12:35:59;;;;;;;;;;;;;;;20.93;100.00;98820.84;5058302;28;1163;-78
2023/08/02 12:38:29;;;;;;;;;;;;;;;20.94;100.00;98822.44;5057181;28;980;-78
2023/08/02 12:40:55;;;;;;;;;;;;;;;20.86;100.00;98814.13;5057116;28;1377;-79
2023/08/02 12:43:20;;;;;;;;;;;;;;;20.78;100.00;98827.72;5059453;28;1189;-78
2023/08/02 12:45:45;;;;;;;;;;;;;;;20.72;100.00;98823.41;5059905;28;1959;-78